Time;durP1;ratioP1;P1;durP2;ratioP2;P2;SDS_P1;SDS_P2;PMS_P1;PMS_P2;Temp;Humidity;BMP_temperature;BMP_pressure;BME280_temperature;BME280_humidity;BME280_pressure;Samples;Min_cycle;Max_cycle;Signal;HPM_P1;HPM_P2
2023/12/13 00:13:04;;;;;;;68.70;36.50;;;;;;;2.38;100.00;97497.71;438079;1250;112024;-38
2023/12/13 00:23:11;;;;;;;81.70;38.00;;;;;;;2.50;100.00;97506.31;438027;1250;107557;-39
2023/12/13 00:33:18;;;;;;;91.60;45.20;;;;;;;2.52;100.00;97502.98;437942;1250;99215;-40
2023/12/13 00:43:25;;;;;;;77.40;45.10;;;;;;;2.46;100.00;97489.14;437604;1250;427201;-38
2023/12/13 00:53:32;;;;;;;121.40;61.40;;;;;;;2.36;100.00;97490.98;438075;1250;99249;-39
2023/12/13 01:03:39;;;;;;;92.80;46.10;;;;;;;2.18;100.00;97478.75;438062;1248;111725;-38
2023/12/13 01:13:46;;;;;;;75.30;47.00;;;;;;;2.15;100.00;97468.80;438027;1250;107046;-39
2023/12/13 01:33:59;;;;;;;82.20;45.80;;;;;;;2.21;100.00;97440.59;437967;1250;108194;-39
2023/12/13 01:54:12;;;;;;;71.30;41.30;;;;;;;2.22;100.00;97405.12;437922;1250;111096;-41
2023/12/13 02:04:18;;;;;;;100.30;51.10;;;;;;;2.28;100.00;97393.65;437896;1250;107274;-39
2023/12/13 02:24:33;;;;;;;78.80;43.70;;;;;;;2.36;100.00;97365.61;438752;1248;112038;-39
2023/12/13 02:44:47;;;;;;;55.30;36.20;;;;;;;2.63;100.00;97370.81;437506;1250;99232;-40
2023/12/13 02:54:54;;;;;;;64.20;34.40;;;;;;;2.67;100.00;97359.22;437955;1247;111125;-39
2023/12/13 03:05:03;;;;;;;58.30;33.90;;;;;;;2.67;100.00;97355.09;437231;1246;107126;-40
2023/12/13 03:15:10;;;;;;;79.70;43.10;;;;;;;2.65;100.00;97346.83;437529;1250;98840;-39
2023/12/13 03:35:23;;;;;;;59.40;37.10;;;;;;;2.58;100.00;97335.85;437531;1250;99215;-39
2023/12/13 03:45:30;;;;;;;61.70;35.80;;;;;;;2.62;100.00;97324.27;437462;1250;112642;-39
2023/12/13 03:55:37;;;;;;;61.50;34.10;;;;;;;2.88;100.00;97314.61;437414;1247;108827;-39
2023/12/13 04:15:51;;;;;;;68.70;33.50;;;;;;;2.99;100.00;97285.64;437317;1248;107372;-39
2023/12/13 04:25:58;;;;;;;64.50;32.60;;;;;;;2.95;100.00;97273.50;437320;1250;99346;-40
2023/12/13 04:36:06;;;;;;;41.80;27.20;;;;;;;2.99;100.00;97268.34;437430;1250;113483;-40
2023/12/13 04:46:13;;;;;;;35.40;21.60;;;;;;;3.13;100.00;97265.73;437270;1247;107738;-40
2023/12/13 04:56:20;;;;;;;35.40;20.10;;;;;;;3.23;100.00;97263.05;437480;1251;99216;-40
2023/12/13 05:06:27;;;;;;;45.00;25.50;;;;;;;3.22;100.00;97254.21;438051;1250;105861;-40
2023/12/13 05:16:35;;;;;;;47.40;25.40;;;;;;;3.08;100.00;97251.17;438030;1247;99230;-39
2023/12/13 05:26:40;;;;;;;42.20;22.10;;;;;;;2.95;100.00;97242.54;437580;1250;112147;-38
2023/12/13 05:36:47;;;;;;;37.20;21.10;;;;;;;2.86;100.00;97247.89;437804;1250;108415;-39
2023/12/13 05:46:54;;;;;;;26.50;16.10;;;;;;;2.91;100.00;97238.77;437500;1250;98658;-40
2023/12/13 05:57:02;;;;;;;25.60;16.60;;;;;;;2.92;100.00;97226.02;437478;1250;110326;-39
2023/12/13 06:07:08;;;;;;;40.10;22.60;;;;;;;2.85;100.00;97228.58;437420;1250;107906;-41
2023/12/13 06:17:16;;;;;;;56.80;26.20;;;;;;;2.73;100.00;97207.19;437549;1250;99204;-40
2023/12/13 06:27:23;;;;;;;38.20;22.90;;;;;;;2.69;100.00;97202.17;437518;1250;112667;-39
2023/12/13 06:37:29;;;;;;;39.80;20.70;;;;;;;2.76;100.00;97194.75;437489;1247;108684;-39
2023/12/13 06:47:37;;;;;;;35.70;24.50;;;;;;;2.81;100.00;97197.80;437487;1250;99304;-39
2023/12/13 06:57:46;;;;;;;57.60;31.30;;;;;;;2.77;100.00;97193.10;437601;1250;108621;-40
2023/12/13 07:07:53;;;;;;;64.40;36.00;;;;;;;2.63;100.00;97182.34;437539;1247;99622;-41
2023/12/13 07:18:00;;;;;;;55.00;31.90;;;;;;;2.63;100.00;97174.60;437522;1250;112014;-39
2023/12/13 07:58:36;;;;;;;67.30;36.50;;;;;;;2.94;100.00;97183.86;437492;1247;99422;-38
2023/12/13 08:08:43;;;;;;;78.50;41.00;;;;;;;2.89;100.00;97180.63;437690;1248;110828;-40
2023/12/13 08:18:48;;;;;;;64.50;35.30;;;;;;;2.95;100.00;97176.67;437403;1250;109144;-38
2023/12/13 08:49:18;;;;;;;60.80;33.40;;;;;;;3.30;100.00;97134.89;437421;1250;99268;-39
2023/12/13 09:19:37;;;;;;;46.60;26.70;;;;;;;3.41;100.00;97145.61;437409;1248;99323;-39
2023/12/13 09:29:44;;;;;;;43.00;25.10;;;;;;;3.35;100.00;97166.19;437386;1250;109761;-39
2023/12/13 10:00:17;;;;;;;42.30;23.00;;;;;;;3.48;100.00;97133.21;437549;1250;108288;-40
2023/12/13 10:10:24;;;;;;;47.70;24.00;;;;;;;3.54;100.00;97107.36;437434;1247;97943;-39
2023/12/13 10:30:42;;;;;;;29.20;18.40;;;;;;;3.52;100.00;97091.63;437456;1260;99260;-40
2023/12/13 10:40:50;;;;;;;41.30;23.30;;;;;;;3.67;100.00;97076.76;437572;1251;110210;-39
2023/12/13 10:50:55;;;;;;;42.70;25.00;;;;;;;3.64;100.00;97069.52;437330;1248;109457;-39
2023/12/13 11:01:07;;;;;;;28.40;19.90;;;;;;;3.78;100.00;97057.07;437494;1250;99222;-39
2023/12/13 11:11:16;;;;;;;28.50;20.20;;;;;;;4.02;99.97;97045.08;437531;1250;108450;-40
2023/12/13 11:31:33;;;;;;;42.00;25.10;;;;;;;4.22;100.00;97039.77;437678;1246;110742;-39
2023/12/13 11:41:43;;;;;;;31.80;19.30;;;;;;;4.24;99.78;97035.20;437367;1250;107754;-41
2023/12/13 11:51:50;;;;;;;30.40;18.80;;;;;;;4.36;99.93;97029.77;437580;1247;99317;-40
2023/12/13 12:01:57;;;;;;;44.90;26.30;;;;;;;4.47;100.00;97020.34;437353;1260;112199;-39
2023/12/13 12:12:06;;;;;;;55.90;30.50;;;;;;;4.51;100.00;97003.61;437398;1254;107386;-40
2023/12/13 12:22:13;;;;;;;35.10;18.40;;;;;;;4.66;99.94;97025.63;437440;1260;99217;-40
2023/12/13 12:32:20;;;;;;;27.30;16.10;;;;;;;4.73;99.76;97027.98;437424;1248;108404;-40
2023/12/13 12:42:27;;;;;;;35.70;20.90;;;;;;;4.61;99.57;97024.06;437171;1250;443501;-38
2023/12/13 12:52:35;;;;;;;27.50;16.40;;;;;;;4.51;99.73;97019.05;437536;1260;111895;-40
2023/12/13 13:02:42;;;;;;;27.60;15.40;;;;;;;4.52;99.33;97026.66;437544;1248;106459;-39
2023/12/13 13:12:49;;;;;;;31.40;18.70;;;;;;;4.54;99.20;97031.05;437431;1260;99094;-40
2023/12/13 13:53:13;;;;;;;33.40;21.30;;;;;;;4.29;99.07;97020.83;437591;1250;107962;-39
2023/12/13 14:03:20;;;;;;;24.80;15.80;;;;;;;4.09;98.62;97012.23;437175;1247;98081;-40
2023/12/13 14:13:28;;;;;;;22.60;15.00;;;;;;;3.97;98.76;97029.62;437775;1251;107942;-39
2023/12/13 14:23:35;;;;;;;34.10;22.20;;;;;;;3.91;98.90;97017.89;437536;1250;99323;-40
2023/12/13 14:33:43;;;;;;;35.10;22.30;;;;;;;3.78;99.00;97028.65;437412;1251;110455;-40
2023/12/13 14:43:50;;;;;;;30.90;19.90;;;;;;;3.65;98.78;97030.34;437384;1246;107303;-41
2023/12/13 14:53:58;;;;;;;31.20;19.60;;;;;;;3.61;99.04;97024.65;437347;1260;98692;-39
2023/12/13 15:04:05;;;;;;;34.50;18.60;;;;;;;3.58;99.01;97041.42;437317;1257;108612;-39
2023/12/13 15:14:12;;;;;;;46.40;26.90;;;;;;;3.56;99.23;97053.27;437350;1251;98007;-38
2023/12/13 15:24:19;;;;;;;34.90;20.30;;;;;;;3.47;99.31;97061.67;437522;1248;110933;-39
2023/12/13 15:34:27;;;;;;;34.30;21.50;;;;;;;3.46;99.20;97069.25;437466;1247;108533;-39
2023/12/13 15:44:35;;;;;;;47.40;26.90;;;;;;;3.46;99.40;97080.98;437427;1252;99228;-39
2023/12/13 15:54:42;;;;;;;62.40;31.80;;;;;;;3.51;99.65;97095.46;437378;1251;106953;-39
2023/12/13 16:04:48;;;;;;;76.40;34.90;;;;;;;3.43;99.72;97096.46;437367;1247;99204;-40
2023/12/13 16:14:54;;;;;;;59.20;32.00;;;;;;;3.38;99.56;97096.98;437272;1250;112035;-38
2023/12/13 16:25:00;;;;;;;65.00;34.40;;;;;;;3.43;99.62;97099.95;437266;1250;107592;-39
2023/12/13 16:35:07;;;;;;;56.20;31.90;;;;;;;3.52;99.90;97089.98;437437;1247;98807;-40
2023/12/13 16:45:15;;;;;;;89.00;44.70;;;;;;;3.56;99.87;97094.21;437291;1248;108055;-39
2023/12/13 17:05:30;;;;;;;40.50;27.00;;;;;;;3.52;99.92;97095.80;437407;1250;110980;-38
2023/12/13 17:15:36;;;;;;;48.00;28.80;;;;;;;3.57;99.88;97088.59;437393;1247;107775;-40
2023/12/13 17:25:43;;;;;;;44.70;27.80;;;;;;;3.70;100.00;97095.91;437458;1248;98663;-39
2023/12/13 17:35:50;;;;;;;73.60;38.10;;;;;;;3.75;100.00;97108.63;437492;1247;107266;-39
2023/12/13 17:45:56;;;;;;;78.90;41.60;;;;;;;3.71;100.00;97101.63;437389;1251;99948;-38
2023/12/13 17:56:02;;;;;;;49.60;28.80;;;;;;;3.68;99.98;97093.41;437369;1251;111736;-39
2023/12/13 18:06:09;;;;;;;48.70;28.60;;;;;;;3.68;99.92;97088.59;437227;1251;107679;-40
2023/12/13 18:16:16;;;;;;;42.60;26.00;;;;;;;3.63;99.95;97088.31;437310;1248;99234;-40
2023/12/13 18:26:23;;;;;;;70.60;33.50;;;;;;;3.56;99.92;97089.61;437280;1250;109390;-40
2023/12/13 18:36:31;;;;;;;40.70;25.70;;;;;;;3.39;99.94;97081.27;437379;1247;98813;-39
2023/12/13 18:46:37;;;;;;;34.60;22.20;;;;;;;3.37;99.97;97086.25;437321;1250;111880;-39
2023/12/13 18:56:45;;;;;;;37.10;22.80;;;;;;;3.36;100.00;97074.25;437370;1250;106583;-40
2023/12/13 19:06:52;;;;;;;49.30;25.60;;;;;;;3.33;100.00;97084.85;437327;1250;99237;-40
2023/12/13 19:37:09;;;;;;;28.50;18.30;;;;;;;3.06;100.00;97116.20;437358;1250;110930;-39
2023/12/13 19:47:16;;;;;;;27.20;18.00;;;;;;;3.12;100.00;97123.62;437088;1247;108411;-40
2023/12/13 19:57:22;;;;;;;69.20;31.10;;;;;;;3.19;100.00;97141.58;437195;1250;99228;-39
2023/12/13 20:07:29;;;;;;;53.30;28.70;;;;;;;3.23;100.00;97160.09;437460;1250;108849;-40
2023/12/13 20:17:36;;;;;;;53.30;30.90;;;;;;;3.21;100.00;97157.02;437250;1247;97979;-39
2023/12/13 20:37:50;;;;;;;44.80;27.50;;;;;;;3.24;100.00;97170.45;437327;1250;109690;-40
2023/12/13 20:47:58;;;;;;;48.80;30.20;;;;;;;3.25;100.00;97174.45;437405;1250;98043;-38
2023/12/13 20:58:05;;;;;;;56.00;33.40;;;;;;;3.32;100.00;97189.80;437431;1250;108062;-39
2023/12/13 21:08:12;;;;;;;67.90;35.60;;;;;;;3.33;100.00;97205.64;437476;1250;97965;-40
2023/12/13 21:18:19;;;;;;;56.30;31.90;;;;;;;3.39;100.00;97223.46;437528;1250;111773;-40
2023/12/13 21:28:26;;;;;;;52.50;29.70;;;;;;;3.40;100.00;97236.30;437334;1250;108377;-40
2023/12/13 21:38:32;;;;;;;54.40;31.50;;;;;;;3.51;100.00;97242.02;437562;1250;99261;-39
2023/12/13 21:48:40;;;;;;;79.50;39.70;;;;;;;3.56;100.00;97243.73;438091;1250;108024;-39
2023/12/13 22:08:54;;;;;;;62.70;32.40;;;;;;;3.34;100.00;97251.69;437356;1250;110855;-39
2023/12/13 22:29:10;;;;;;;63.60;35.60;;;;;;;3.35;100.00;97253.24;437371;1250;99240;-39
2023/12/13 22:49:22;;;;;;;90.80;39.50;;;;;;;3.44;100.00;97256.48;437423;1250;98804;-39
2023/12/13 22:59:30;;;;;;;95.50;42.50;;;;;;;3.33;100.00;97264.44;437361;1250;110185;-38
2023/12/13 23:09:37;;;;;;;69.80;35.00;;;;;;;3.24;100.00;97264.96;437334;1246;107268;-39
2023/12/13 23:19:44;;;;;;;74.40;34.00;;;;;;;3.21;100.00;97258.25;437321;1250;99224;-40
2023/12/13 23:29:50;;;;;;;75.60;33.90;;;;;;;3.27;100.00;97259.66;437370;1250;107819;-39
2023/12/13 23:39:58;;;;;;;77.70;35.20;;;;;;;3.27;100.00;97269.02;437468;1247;99209;-38
2023/12/13 23:50:03;;;;;;;106.50;41.10;;;;;;;3.24;100.00;97281.68;437384;1250;110832;-40
